sensor_id;sensor_type;location;lat;lon;timestamp;temperature;humidity
1391;DHT22;690;51.454;7.194;2023-11-21T00:00:05;5.50;99.90
1391;DHT22;690;51.454;7.194;2023-11-21T00:02:37;5.60;99.90
1391;DHT22;690;51.454;7.194;2023-11-21T00:05:06;5.60;1.00
1391;DHT22;690;51.454;7.194;2023-11-21T00:07:35;5.70;1.00
1391;DHT22;690;51.454;7.194;2023-11-21T00:10:02;5.70;1.00
1391;DHT22;690;51.454;7.194;2023-11-21T00:12:30;5.80;1.00
1391;DHT22;690;51.454;7.194;2023-11-21T00:15:03;5.80;1.00
1391;DHT22;690;51.454;7.194;2023-11-21T00:17:30;5.90;1.00
1391;DHT22;690;51.454;7.194;2023-11-21T00:19:57;5.90;1.00
1391;DHT22;690;51.454;7.194;2023-11-21T00:22:24;6.00;1.00
1391;DHT22;690;51.454;7.194;2023-11-21T00:24:52;6.00;1.00
1391;DHT22;690;51.454;7.194;2023-11-21T00:27:19;6.00;1.00
1391;DHT22;690;51.454;7.194;2023-11-21T00:29:46;6.10;1.00
1391;DHT22;690;51.454;7.194;2023-11-21T00:32:13;6.10;1.00
1391;DHT22;690;51.454;7.194;2023-11-21T00:34:40;6.20;1.00
1391;DHT22;690;51.454;7.194;2023-11-21T00:37:08;6.20;1.00
1391;DHT22;690;51.454;7.194;2023-11-21T00:39:34;6.20;40.80
1391;DHT22;690;51.454;7.194;2023-11-21T00:42:03;6.20;99.90
1391;DHT22;690;51.454;7.194;2023-11-21T00:44:31;6.20;99.90
1391;DHT22;690;51.454;7.194;2023-11-21T00:46:59;6.30;99.90
1391;DHT22;690;51.454;7.194;2023-11-21T00:49:26;6.30;99.90
1391;DHT22;690;51.454;7.194;2023-11-21T00:51:54;6.30;99.90
1391;DHT22;690;51.454;7.194;2023-11-21T00:54:21;6.40;99.90
1391;DHT22;690;51.454;7.194;2023-11-21T00:56:48;6.40;99.90
1391;DHT22;690;51.454;7.194;2023-11-21T00:59:17;6.40;99.90
1391;DHT22;690;51.454;7.194;2023-11-21T01:01:43;6.40;99.90
1391;DHT22;690;51.454;7.194;2023-11-21T01:04:10;6.40;99.90
1391;DHT22;690;51.454;7.194;2023-11-21T01:06:37;6.40;99.90
1391;DHT22;690;51.454;7.194;2023-11-21T01:09:04;6.50;99.90
1391;DHT22;690;51.454;7.194;2023-11-21T01:11:34;6.50;99.90
1391;DHT22;690;51.454;7.194;2023-11-21T01:14:02;6.50;99.90
1391;DHT22;690;51.454;7.194;2023-11-21T01:16:31;6.50;99.90
1391;DHT22;690;51.454;7.194;2023-11-21T01:18:59;6.50;1.00
1391;DHT22;690;51.454;7.194;2023-11-21T01:21:25;6.50;1.00
1391;DHT22;690;51.454;7.194;2023-11-21T01:23:53;6.50;1.00
1391;DHT22;690;51.454;7.194;2023-11-21T01:26:20;6.60;1.00
1391;DHT22;690;51.454;7.194;2023-11-21T01:28:47;6.50;1.00
1391;DHT22;690;51.454;7.194;2023-11-21T01:31:15;6.60;1.00
1391;DHT22;690;51.454;7.194;2023-11-21T01:33:43;6.60;1.00
1391;DHT22;690;51.454;7.194;2023-11-21T01:36:10;6.60;1.00
1391;DHT22;690;51.454;7.194;2023-11-21T01:38:37;6.60;1.00
1391;DHT22;690;51.454;7.194;2023-11-21T01:41:05;6.60;1.00
1391;DHT22;690;51.454;7.194;2023-11-21T01:43:32;6.60;1.00
1391;DHT22;690;51.454;7.194;2023-11-21T01:46:01;6.60;1.00
1391;DHT22;690;51.454;7.194;2023-11-21T01:48:28;6.70;1.00
1391;DHT22;690;51.454;7.194;2023-11-21T01:50:56;6.70;1.00
1391;DHT22;690;51.454;7.194;2023-11-21T01:53:24;6.70;1.00
1391;DHT22;690;51.454;7.194;2023-11-21T01:55:51;6.80;1.00
1391;DHT22;690;51.454;7.194;2023-11-21T01:58:19;6.70;1.00
1391;DHT22;690;51.454;7.194;2023-11-21T02:00:47;6.70;1.00
1391;DHT22;690;51.454;7.194;2023-11-21T02:03:17;6.80;99.90
1391;DHT22;690;51.454;7.194;2023-11-21T02:05:44;6.70;99.90
1391;DHT22;690;51.454;7.194;2023-11-21T02:08:15;6.70;99.90
1391;DHT22;690;51.454;7.194;2023-11-21T02:10:42;6.60;99.90
1391;DHT22;690;51.454;7.194;2023-11-21T02:13:09;6.60;99.90
1391;DHT22;690;51.454;7.194;2023-11-21T02:15:36;6.50;99.90
1391;DHT22;690;51.454;7.194;2023-11-21T02:18:04;6.40;1.00
1391;DHT22;690;51.454;7.194;2023-11-21T02:20:32;6.40;99.90
1391;DHT22;690;51.454;7.194;2023-11-21T02:23:01;6.40;1.00
1391;DHT22;690;51.454;7.194;2023-11-21T02:25:29;6.40;1.00
1391;DHT22;690;51.454;7.194;2023-11-21T02:27:58;6.40;1.00
1391;DHT22;690;51.454;7.194;2023-11-21T02:30:25;6.40;1.00
1391;DHT22;690;51.454;7.194;2023-11-21T02:32:53;6.40;1.00
1391;DHT22;690;51.454;7.194;2023-11-21T02:35:20;6.40;1.00
1391;DHT22;690;51.454;7.194;2023-11-21T02:37:47;6.50;1.00
1391;DHT22;690;51.454;7.194;2023-11-21T02:40:16;6.50;1.00
1391;DHT22;690;51.454;7.194;2023-11-21T02:42:43;6.50;1.00
1391;DHT22;690;51.454;7.194;2023-11-21T02:45:10;6.50;99.90
1391;DHT22;690;51.454;7.194;2023-11-21T02:47:38;6.50;99.90
1391;DHT22;690;51.454;7.194;2023-11-21T02:50:06;6.50;99.90
1391;DHT22;690;51.454;7.194;2023-11-21T02:52:34;6.50;1.00
1391;DHT22;690;51.454;7.194;2023-11-21T02:55:01;6.50;1.00
1391;DHT22;690;51.454;7.194;2023-11-21T02:57:29;6.50;1.00
1391;DHT22;690;51.454;7.194;2023-11-21T02:59:56;6.50;1.00
1391;DHT22;690;51.454;7.194;2023-11-21T03:02:23;6.60;1.00
1391;DHT22;690;51.454;7.194;2023-11-21T03:04:50;6.60;1.00
1391;DHT22;690;51.454;7.194;2023-11-21T03:07:17;6.60;1.00
1391;DHT22;690;51.454;7.194;2023-11-21T03:09:44;6.60;1.00
1391;DHT22;690;51.454;7.194;2023-11-21T03:12:12;6.60;99.90
1391;DHT22;690;51.454;7.194;2023-11-21T03:14:40;6.60;99.90
1391;DHT22;690;51.454;7.194;2023-11-21T03:17:09;6.60;1.00
1391;DHT22;690;51.454;7.194;2023-11-21T03:19:37;6.60;1.00
1391;DHT22;690;51.454;7.194;2023-11-21T03:22:04;6.70;1.00
1391;DHT22;690;51.454;7.194;2023-11-21T03:24:30;6.70;1.00
1391;DHT22;690;51.454;7.194;2023-11-21T03:26:57;6.70;99.90
1391;DHT22;690;51.454;7.194;2023-11-21T03:29:25;6.70;99.90
1391;DHT22;690;51.454;7.194;2023-11-21T03:31:53;6.70;1.00
1391;DHT22;690;51.454;7.194;2023-11-21T03:34:26;6.70;99.90
1391;DHT22;690;51.454;7.194;2023-11-21T03:36:53;6.70;99.90
1391;DHT22;690;51.454;7.194;2023-11-21T03:39:20;6.70;99.90
1391;DHT22;690;51.454;7.194;2023-11-21T03:41:48;6.70;1.00
1391;DHT22;690;51.454;7.194;2023-11-21T03:44:15;6.60;1.00
1391;DHT22;690;51.454;7.194;2023-11-21T03:46:43;6.60;1.00
1391;DHT22;690;51.454;7.194;2023-11-21T03:49:11;6.60;1.00
1391;DHT22;690;51.454;7.194;2023-11-21T03:51:38;6.60;1.00
1391;DHT22;690;51.454;7.194;2023-11-21T03:54:05;6.60;1.00
1391;DHT22;690;51.454;7.194;2023-11-21T03:56:32;6.70;1.00
1391;DHT22;690;51.454;7.194;2023-11-21T03:58:59;6.60;1.00
1391;DHT22;690;51.454;7.194;2023-11-21T04:01:26;6.60;1.00
1391;DHT22;690;51.454;7.194;2023-11-21T04:03:53;6.60;1.00
1391;DHT22;690;51.454;7.194;2023-11-21T04:06:21;6.60;1.00
1391;DHT22;690;51.454;7.194;2023-11-21T04:08:48;6.60;1.00
1391;DHT22;690;51.454;7.194;2023-11-21T04:11:15;6.60;1.00
1391;DHT22;690;51.454;7.194;2023-11-21T04:13:42;6.70;1.00
1391;DHT22;690;51.454;7.194;2023-11-21T04:16:10;6.60;1.00
1391;DHT22;690;51.454;7.194;2023-11-21T04:18:37;6.70;1.00
1391;DHT22;690;51.454;7.194;2023-11-21T04:21:07;6.70;1.00
1391;DHT22;690;51.454;7.194;2023-11-21T04:23:36;6.70;1.00
1391;DHT22;690;51.454;7.194;2023-11-21T04:26:02;6.70;1.00
1391;DHT22;690;51.454;7.194;2023-11-21T04:28:31;6.60;1.00
1391;DHT22;690;51.454;7.194;2023-11-21T04:30:58;6.60;1.00
1391;DHT22;690;51.454;7.194;2023-11-21T04:33:24;6.60;1.00
1391;DHT22;690;51.454;7.194;2023-11-21T04:35:51;6.60;99.90
1391;DHT22;690;51.454;7.194;2023-11-21T04:38:18;6.50;99.90
1391;DHT22;690;51.454;7.194;2023-11-21T04:40:47;6.40;99.90
1391;DHT22;690;51.454;7.194;2023-11-21T04:43:12;6.40;99.90
1391;DHT22;690;51.454;7.194;2023-11-21T04:45:39;6.30;99.90
1391;DHT22;690;51.454;7.194;2023-11-21T04:48:07;6.20;99.90
1391;DHT22;690;51.454;7.194;2023-11-21T04:50:35;6.20;99.90
1391;DHT22;690;51.454;7.194;2023-11-21T04:53:02;6.10;99.90
1391;DHT22;690;51.454;7.194;2023-11-21T04:55:29;6.00;99.90
1391;DHT22;690;51.454;7.194;2023-11-21T04:57:57;6.00;99.90
1391;DHT22;690;51.454;7.194;2023-11-21T05:00:24;6.00;99.90
1391;DHT22;690;51.454;7.194;2023-11-21T05:02:51;6.00;1.00
1391;DHT22;690;51.454;7.194;2023-11-21T05:05:18;6.00;1.00
1391;DHT22;690;51.454;7.194;2023-11-21T05:07:45;6.00;1.00
1391;DHT22;690;51.454;7.194;2023-11-21T05:10:12;6.10;1.00
1391;DHT22;690;51.454;7.194;2023-11-21T05:12:40;6.10;1.00
1391;DHT22;690;51.454;7.194;2023-11-21T05:15:10;6.20;1.00
1391;DHT22;690;51.454;7.194;2023-11-21T05:17:40;6.30;1.00
1391;DHT22;690;51.454;7.194;2023-11-21T05:20:09;6.30;1.00
1391;DHT22;690;51.454;7.194;2023-11-21T05:22:36;6.30;1.00
1391;DHT22;690;51.454;7.194;2023-11-21T05:25:04;6.30;99.90
1391;DHT22;690;51.454;7.194;2023-11-21T05:27:33;6.30;99.90
1391;DHT22;690;51.454;7.194;2023-11-21T05:30:06;6.30;99.90
1391;DHT22;690;51.454;7.194;2023-11-21T05:32:36;6.20;99.90
1391;DHT22;690;51.454;7.194;2023-11-21T05:35:03;6.20;99.90
1391;DHT22;690;51.454;7.194;2023-11-21T05:37:35;6.10;99.90
1391;DHT22;690;51.454;7.194;2023-11-21T05:40:05;6.10;99.90
1391;DHT22;690;51.454;7.194;2023-11-21T05:42:32;6.00;99.90
1391;DHT22;690;51.454;7.194;2023-11-21T05:44:59;6.00;99.90
1391;DHT22;690;51.454;7.194;2023-11-21T05:47:36;5.90;99.90
1391;DHT22;690;51.454;7.194;2023-11-21T05:50:04;5.90;99.90
1391;DHT22;690;51.454;7.194;2023-11-21T05:52:32;5.90;99.90
1391;DHT22;690;51.454;7.194;2023-11-21T05:54:59;5.90;99.90
1391;DHT22;690;51.454;7.194;2023-11-21T05:57:26;5.80;99.90
1391;DHT22;690;51.454;7.194;2023-11-21T05:59:53;5.80;99.90
1391;DHT22;690;51.454;7.194;2023-11-21T06:02:20;5.80;99.90
1391;DHT22;690;51.454;7.194;2023-11-21T06:04:48;5.80;1.00
1391;DHT22;690;51.454;7.194;2023-11-21T06:07:15;5.80;1.00
1391;DHT22;690;51.454;7.194;2023-11-21T06:09:42;5.80;1.00
1391;DHT22;690;51.454;7.194;2023-11-21T06:12:10;5.80;99.90
1391;DHT22;690;51.454;7.194;2023-11-21T06:14:37;5.80;99.90
1391;DHT22;690;51.454;7.194;2023-11-21T06:17:04;5.70;99.90
1391;DHT22;690;51.454;7.194;2023-11-21T06:19:31;5.70;99.90
1391;DHT22;690;51.454;7.194;2023-11-21T06:21:59;5.70;99.90
1391;DHT22;690;51.454;7.194;2023-11-21T06:24:27;5.70;99.90
1391;DHT22;690;51.454;7.194;2023-11-21T06:26:53;5.70;99.90
1391;DHT22;690;51.454;7.194;2023-11-21T06:29:20;5.60;99.90
1391;DHT22;690;51.454;7.194;2023-11-21T06:31:48;5.70;1.00
1391;DHT22;690;51.454;7.194;2023-11-21T06:34:14;5.70;99.90
1391;DHT22;690;51.454;7.194;2023-11-21T06:36:41;5.70;99.90
1391;DHT22;690;51.454;7.194;2023-11-21T06:39:09;5.70;99.90
1391;DHT22;690;51.454;7.194;2023-11-21T06:41:41;5.70;1.00
1391;DHT22;690;51.454;7.194;2023-11-21T06:44:08;5.70;1.00
1391;DHT22;690;51.454;7.194;2023-11-21T06:46:35;5.80;1.00
1391;DHT22;690;51.454;7.194;2023-11-21T06:49:03;5.80;1.00
1391;DHT22;690;51.454;7.194;2023-11-21T06:51:32;5.90;1.00
1391;DHT22;690;51.454;7.194;2023-11-21T06:53:58;6.00;1.00
1391;DHT22;690;51.454;7.194;2023-11-21T06:56:27;6.10;1.00
1391;DHT22;690;51.454;7.194;2023-11-21T06:58:54;6.10;1.00
1391;DHT22;690;51.454;7.194;2023-11-21T07:01:21;6.20;1.00
1391;DHT22;690;51.454;7.194;2023-11-21T07:03:48;6.30;1.00
1391;DHT22;690;51.454;7.194;2023-11-21T07:06:14;6.30;1.00
1391;DHT22;690;51.454;7.194;2023-11-21T07:08:42;6.40;1.00
1391;DHT22;690;51.454;7.194;2023-11-21T07:11:09;6.40;1.00
1391;DHT22;690;51.454;7.194;2023-11-21T07:13:37;6.40;1.00
1391;DHT22;690;51.454;7.194;2023-11-21T07:16:05;6.40;1.00
1391;DHT22;690;51.454;7.194;2023-11-21T07:18:32;6.40;1.00
1391;DHT22;690;51.454;7.194;2023-11-21T07:20:59;6.40;1.00
1391;DHT22;690;51.454;7.194;2023-11-21T07:23:25;6.40;1.00
1391;DHT22;690;51.454;7.194;2023-11-21T07:25:52;6.40;1.00
1391;DHT22;690;51.454;7.194;2023-11-21T07:28:20;6.40;1.00
1391;DHT22;690;51.454;7.194;2023-11-21T07:30:48;6.40;1.00
1391;DHT22;690;51.454;7.194;2023-11-21T07:33:15;6.40;1.00
1391;DHT22;690;51.454;7.194;2023-11-21T07:35:45;6.40;1.00
1391;DHT22;690;51.454;7.194;2023-11-21T07:38:12;6.40;1.00
1391;DHT22;690;51.454;7.194;2023-11-21T07:40:39;6.40;1.00
1391;DHT22;690;51.454;7.194;2023-11-21T07:43:06;6.50;1.00
1391;DHT22;690;51.454;7.194;2023-11-21T07:45:33;6.50;1.00
1391;DHT22;690;51.454;7.194;2023-11-21T07:48:01;6.50;1.00
1391;DHT22;690;51.454;7.194;2023-11-21T07:50:29;6.60;1.00
1391;DHT22;690;51.454;7.194;2023-11-21T07:52:57;6.70;1.00
1391;DHT22;690;51.454;7.194;2023-11-21T07:55:28;6.70;1.00
1391;DHT22;690;51.454;7.194;2023-11-21T07:57:58;6.80;1.00
1391;DHT22;690;51.454;7.194;2023-11-21T08:00:25;6.90;1.00
1391;DHT22;690;51.454;7.194;2023-11-21T08:02:55;6.90;1.00
1391;DHT22;690;51.454;7.194;2023-11-21T08:05:24;7.00;1.00
1391;DHT22;690;51.454;7.194;2023-11-21T08:07:51;7.10;1.00
1391;DHT22;690;51.454;7.194;2023-11-21T08:10:18;7.10;1.00
1391;DHT22;690;51.454;7.194;2023-11-21T08:12:46;7.20;1.00
1391;DHT22;690;51.454;7.194;2023-11-21T08:15:14;7.20;1.00
1391;DHT22;690;51.454;7.194;2023-11-21T08:17:41;7.20;1.00
1391;DHT22;690;51.454;7.194;2023-11-21T08:20:09;7.30;1.00
1391;DHT22;690;51.454;7.194;2023-11-21T08:22:38;7.30;15.20
1391;DHT22;690;51.454;7.194;2023-11-21T08:25:08;7.40;1.00
1391;DHT22;690;51.454;7.194;2023-11-21T08:27:35;7.50;29.90
1391;DHT22;690;51.454;7.194;2023-11-21T08:30:02;7.60;1.00
1391;DHT22;690;51.454;7.194;2023-11-21T08:32:29;7.60;1.00
1391;DHT22;690;51.454;7.194;2023-11-21T08:34:57;7.60;1.00
1391;DHT22;690;51.454;7.194;2023-11-21T08:37:25;7.60;1.00
1391;DHT22;690;51.454;7.194;2023-11-21T08:39:54;7.60;1.00
1391;DHT22;690;51.454;7.194;2023-11-21T08:42:20;7.70;1.00
1391;DHT22;690;51.454;7.194;2023-11-21T08:44:48;7.70;1.00
1391;DHT22;690;51.454;7.194;2023-11-21T08:47:15;7.70;1.00
1391;DHT22;690;51.454;7.194;2023-11-21T08:49:42;7.60;1.00
1391;DHT22;690;51.454;7.194;2023-11-21T08:52:09;7.60;1.00
1391;DHT22;690;51.454;7.194;2023-11-21T08:54:37;7.60;1.00
1391;DHT22;690;51.454;7.194;2023-11-21T08:57:05;7.60;1.00
1391;DHT22;690;51.454;7.194;2023-11-21T08:59:32;7.60;1.00
1391;DHT22;690;51.454;7.194;2023-11-21T09:01:59;7.60;1.00
1391;DHT22;690;51.454;7.194;2023-11-21T09:04:26;7.60;1.00
1391;DHT22;690;51.454;7.194;2023-11-21T09:06:52;7.60;1.00
1391;DHT22;690;51.454;7.194;2023-11-21T09:09:19;7.70;1.00
1391;DHT22;690;51.454;7.194;2023-11-21T09:11:46;7.80;1.00
1391;DHT22;690;51.454;7.194;2023-11-21T09:14:16;7.80;1.00
1391;DHT22;690;51.454;7.194;2023-11-21T09:16:43;7.90;38.40
1391;DHT22;690;51.454;7.194;2023-11-21T09:19:10;8.10;55.40
1391;DHT22;690;51.454;7.194;2023-11-21T09:21:37;8.20;1.00
1391;DHT22;690;51.454;7.194;2023-11-21T09:24:05;8.30;1.00
1391;DHT22;690;51.454;7.194;2023-11-21T09:26:34;8.40;1.00
1391;DHT22;690;51.454;7.194;2023-11-21T09:29:01;8.40;99.90
1391;DHT22;690;51.454;7.194;2023-11-21T09:31:30;8.40;99.90
1391;DHT22;690;51.454;7.194;2023-11-21T09:33:59;8.40;99.90
1391;DHT22;690;51.454;7.194;2023-11-21T09:36:26;8.40;99.90
1391;DHT22;690;51.454;7.194;2023-11-21T09:38:55;8.40;99.90
1391;DHT22;690;51.454;7.194;2023-11-21T09:41:27;8.40;99.90
1391;DHT22;690;51.454;7.194;2023-11-21T09:44:02;8.40;99.90
1391;DHT22;690;51.454;7.194;2023-11-21T09:46:35;8.40;99.90
1391;DHT22;690;51.454;7.194;2023-11-21T09:49:06;8.40;1.00
1391;DHT22;690;51.454;7.194;2023-11-21T09:51:39;8.30;1.00
1391;DHT22;690;51.454;7.194;2023-11-21T09:54:09;8.10;1.00
1391;DHT22;690;51.454;7.194;2023-11-21T09:56:37;8.10;1.00
1391;DHT22;690;51.454;7.194;2023-11-21T09:59:05;8.00;85.80
1391;DHT22;690;51.454;7.194;2023-11-21T10:01:37;8.00;99.90
1391;DHT22;690;51.454;7.194;2023-11-21T10:04:05;8.00;99.90
1391;DHT22;690;51.454;7.194;2023-11-21T10:06:38;8.10;1.00
1391;DHT22;690;51.454;7.194;2023-11-21T10:09:06;8.20;99.90
1391;DHT22;690;51.454;7.194;2023-11-21T10:11:40;8.30;99.90
1391;DHT22;690;51.454;7.194;2023-11-21T10:14:08;8.40;99.90
1391;DHT22;690;51.454;7.194;2023-11-21T10:16:41;8.50;1.00
1391;DHT22;690;51.454;7.194;2023-11-21T10:19:10;8.50;99.90
1391;DHT22;690;51.454;7.194;2023-11-21T10:21:41;8.60;99.90
1391;DHT22;690;51.454;7.194;2023-11-21T10:24:08;8.60;99.90
1391;DHT22;690;51.454;7.194;2023-11-21T10:26:35;8.60;99.90
1391;DHT22;690;51.454;7.194;2023-11-21T10:29:03;8.60;99.90
1391;DHT22;690;51.454;7.194;2023-11-21T10:31:30;8.60;99.90
1391;DHT22;690;51.454;7.194;2023-11-21T10:34:13;8.70;1.00
1391;DHT22;690;51.454;7.194;2023-11-21T10:36:40;8.70;28.60
1391;DHT22;690;51.454;7.194;2023-11-21T10:39:08;8.70;99.90
1391;DHT22;690;51.454;7.194;2023-11-21T10:41:35;8.80;99.90
1391;DHT22;690;51.454;7.194;2023-11-21T10:44:02;8.90;99.90
1391;DHT22;690;51.454;7.194;2023-11-21T10:46:33;9.00;99.90
1391;DHT22;690;51.454;7.194;2023-11-21T10:49:00;9.10;45.50
1391;DHT22;690;51.454;7.194;2023-11-21T10:51:29;9.20;99.90
1391;DHT22;690;51.454;7.194;2023-11-21T10:53:56;9.10;67.50
1391;DHT22;690;51.454;7.194;2023-11-21T10:56:28;9.10;99.90
1391;DHT22;690;51.454;7.194;2023-11-21T10:58:56;9.10;99.90
1391;DHT22;690;51.454;7.194;2023-11-21T11:01:25;9.10;66.10
1391;DHT22;690;51.454;7.194;2023-11-21T11:03:55;9.00;1.00
1391;DHT22;690;51.454;7.194;2023-11-21T11:06:24;9.00;1.00
1391;DHT22;690;51.454;7.194;2023-11-21T11:08:54;9.00;1.00
1391;DHT22;690;51.454;7.194;2023-11-21T11:11:21;8.90;1.00
1391;DHT22;690;51.454;7.194;2023-11-21T11:13:48;9.00;99.90
1391;DHT22;690;51.454;7.194;2023-11-21T11:16:15;9.00;1.00
1391;DHT22;690;51.454;7.194;2023-11-21T11:18:43;9.10;47.40
1391;DHT22;690;51.454;7.194;2023-11-21T11:21:22;9.20;1.00
1391;DHT22;690;51.454;7.194;2023-11-21T11:26:55;9.20;99.90
1391;DHT22;690;51.454;7.194;2023-11-21T11:29:30;9.10;96.90
1391;DHT22;690;51.454;7.194;2023-11-21T11:32:08;9.10;1.00
1391;DHT22;690;51.454;7.194;2023-11-21T11:34:41;8.90;1.00
1391;DHT22;690;51.454;7.194;2023-11-21T11:37:09;8.80;1.00
1391;DHT22;690;51.454;7.194;2023-11-21T11:39:39;8.70;1.00
1391;DHT22;690;51.454;7.194;2023-11-21T11:42:08;8.60;12.00
1391;DHT22;690;51.454;7.194;2023-11-21T11:44:49;8.50;99.90
1391;DHT22;690;51.454;7.194;2023-11-21T11:47:22;8.40;99.90
1391;DHT22;690;51.454;7.194;2023-11-21T11:50:01;8.40;1.00
1391;DHT22;690;51.454;7.194;2023-11-21T11:52:37;8.40;1.00
1391;DHT22;690;51.454;7.194;2023-11-21T11:55:08;8.40;99.90
1391;DHT22;690;51.454;7.194;2023-11-21T11:57:40;8.40;1.00
1391;DHT22;690;51.454;7.194;2023-11-21T12:00:18;8.40;1.00
1391;DHT22;690;51.454;7.194;2023-11-21T12:02:47;8.40;1.00
1391;DHT22;690;51.454;7.194;2023-11-21T12:05:16;8.40;99.90
1391;DHT22;690;51.454;7.194;2023-11-21T12:07:49;8.40;99.90
1391;DHT22;690;51.454;7.194;2023-11-21T12:10:20;8.30;1.00
1391;DHT22;690;51.454;7.194;2023-11-21T12:12:51;8.30;1.00
1391;DHT22;690;51.454;7.194;2023-11-21T12:15:19;8.40;99.90
1391;DHT22;690;51.454;7.194;2023-11-21T12:17:47;8.30;99.90
1391;DHT22;690;51.454;7.194;2023-11-21T12:20:18;8.30;99.90
1391;DHT22;690;51.454;7.194;2023-11-21T12:22:46;8.20;1.00
1391;DHT22;690;51.454;7.194;2023-11-21T12:25:15;8.20;1.00
1391;DHT22;690;51.454;7.194;2023-11-21T12:27:47;8.10;1.00
1391;DHT22;690;51.454;7.194;2023-11-21T12:30:15;8.10;1.00
1391;DHT22;690;51.454;7.194;2023-11-21T12:32:43;8.10;1.00
1391;DHT22;690;51.454;7.194;2023-11-21T12:35:12;8.10;1.00
1391;DHT22;690;51.454;7.194;2023-11-21T12:37:40;8.10;1.00
1391;DHT22;690;51.454;7.194;2023-11-21T12:40:09;8.10;1.00
1391;DHT22;690;51.454;7.194;2023-11-21T12:42:38;8.10;18.20
1391;DHT22;690;51.454;7.194;2023-11-21T12:45:10;8.10;1.00
1391;DHT22;690;51.454;7.194;2023-11-21T12:47:42;8.10;1.00
1391;DHT22;690;51.454;7.194;2023-11-21T12:50:09;8.10;1.00
1391;DHT22;690;51.454;7.194;2023-11-21T12:52:44;8.10;1.00
1391;DHT22;690;51.454;7.194;2023-11-21T12:55:15;8.00;1.00
1391;DHT22;690;51.454;7.194;2023-11-21T12:57:43;8.10;52.30
1391;DHT22;690;51.454;7.194;2023-11-21T13:00:16;8.10;15.40
1391;DHT22;690;51.454;7.194;2023-11-21T13:02:54;8.10;1.00
1391;DHT22;690;51.454;7.194;2023-11-21T13:05:27;8.00;1.00
1391;DHT22;690;51.454;7.194;2023-11-21T13:07:55;8.00;99.90
1391;DHT22;690;51.454;7.194;2023-11-21T13:10:24;7.90;99.90
1391;DHT22;690;51.454;7.194;2023-11-21T13:12:55;7.90;99.90
1391;DHT22;690;51.454;7.194;2023-11-21T13:15:25;7.90;99.90
1391;DHT22;690;51.454;7.194;2023-11-21T13:17:53;7.80;1.00
1391;DHT22;690;51.454;7.194;2023-11-21T13:20:22;7.80;1.00
1391;DHT22;690;51.454;7.194;2023-11-21T13:22:51;7.80;1.00
1391;DHT22;690;51.454;7.194;2023-11-21T13:25:20;7.80;85.00
1391;DHT22;690;51.454;7.194;2023-11-21T13:27:48;7.80;1.00
1391;DHT22;690;51.454;7.194;2023-11-21T13:30:16;7.80;22.80
1391;DHT22;690;51.454;7.194;2023-11-21T13:32:45;7.70;99.90
1391;DHT22;690;51.454;7.194;2023-11-21T13:35:12;7.70;99.90
1391;DHT22;690;51.454;7.194;2023-11-21T13:37:50;7.70;99.90
1391;DHT22;690;51.454;7.194;2023-11-21T13:40:21;7.70;1.00
1391;DHT22;690;51.454;7.194;2023-11-21T13:42:53;7.70;1.00
1391;DHT22;690;51.454;7.194;2023-11-21T13:45:23;7.70;1.00
1391;DHT22;690;51.454;7.194;2023-11-21T13:47:53;7.70;1.00
1391;DHT22;690;51.454;7.194;2023-11-21T13:50:23;7.70;1.00
1391;DHT22;690;51.454;7.194;2023-11-21T13:52:54;7.70;1.00
1391;DHT22;690;51.454;7.194;2023-11-21T13:55:21;7.70;1.00
1391;DHT22;690;51.454;7.194;2023-11-21T13:57:51;7.70;1.00
1391;DHT22;690;51.454;7.194;2023-11-21T14:00:20;7.80;1.00
1391;DHT22;690;51.454;7.194;2023-11-21T14:03:16;7.70;1.00
1391;DHT22;690;51.454;7.194;2023-11-21T14:05:46;7.70;99.90
1391;DHT22;690;51.454;7.194;2023-11-21T14:08:18;7.70;99.90
1391;DHT22;690;51.454;7.194;2023-11-21T14:10:46;7.60;99.90
1391;DHT22;690;51.454;7.194;2023-11-21T14:13:16;7.60;99.90
1391;DHT22;690;51.454;7.194;2023-11-21T14:15:43;7.60;99.90
1391;DHT22;690;51.454;7.194;2023-11-21T14:18:12;7.60;99.90
1391;DHT22;690;51.454;7.194;2023-11-21T14:20:43;7.60;99.90
1391;DHT22;690;51.454;7.194;2023-11-21T14:23:13;7.60;99.90
1391;DHT22;690;51.454;7.194;2023-11-21T14:25:40;7.60;99.90
1391;DHT22;690;51.454;7.194;2023-11-21T14:28:07;7.60;99.90
1391;DHT22;690;51.454;7.194;2023-11-21T14:30:37;7.60;99.90
1391;DHT22;690;51.454;7.194;2023-11-21T14:33:05;7.50;1.00
1391;DHT22;690;51.454;7.194;2023-11-21T14:35:34;7.50;1.00
1391;DHT22;690;51.454;7.194;2023-11-21T14:38:02;7.60;1.00
1391;DHT22;690;51.454;7.194;2023-11-21T14:40:30;7.70;1.00
1391;DHT22;690;51.454;7.194;2023-11-21T14:42:59;7.70;1.00
1391;DHT22;690;51.454;7.194;2023-11-21T14:45:29;7.70;1.00
1391;DHT22;690;51.454;7.194;2023-11-21T14:47:56;7.60;1.00
1391;DHT22;690;51.454;7.194;2023-11-21T14:50:32;7.60;1.00
1391;DHT22;690;51.454;7.194;2023-11-21T14:53:15;7.60;1.00
1391;DHT22;690;51.454;7.194;2023-11-21T14:55:41;7.60;1.00
1391;DHT22;690;51.454;7.194;2023-11-21T14:58:22;7.60;99.90
1391;DHT22;690;51.454;7.194;2023-11-21T15:00:56;7.50;99.90
1391;DHT22;690;51.454;7.194;2023-11-21T15:03:25;7.40;99.90
1391;DHT22;690;51.454;7.194;2023-11-21T15:06:09;7.40;99.90
1391;DHT22;690;51.454;7.194;2023-11-21T15:08:54;7.40;99.90
1391;DHT22;690;51.454;7.194;2023-11-21T15:11:43;7.30;99.90
1391;DHT22;690;51.454;7.194;2023-11-21T15:14:09;7.30;99.90
1391;DHT22;690;51.454;7.194;2023-11-21T15:16:41;7.20;99.90
1391;DHT22;690;51.454;7.194;2023-11-21T15:19:12;7.20;99.90
1391;DHT22;690;51.454;7.194;2023-11-21T15:21:43;7.20;99.90
1391;DHT22;690;51.454;7.194;2023-11-21T15:24:12;7.10;1.00
1391;DHT22;690;51.454;7.194;2023-11-21T15:26:39;7.20;1.00
1391;DHT22;690;51.454;7.194;2023-11-21T15:29:06;7.20;1.00
1391;DHT22;690;51.454;7.194;2023-11-21T15:31:33;7.10;1.00
1391;DHT22;690;51.454;7.194;2023-11-21T15:34:01;7.10;1.00
1391;DHT22;690;51.454;7.194;2023-11-21T15:36:30;7.10;99.90
1391;DHT22;690;51.454;7.194;2023-11-21T15:38:57;7.10;99.90
1391;DHT22;690;51.454;7.194;2023-11-21T15:41:26;7.00;99.90
1391;DHT22;690;51.454;7.194;2023-11-21T15:43:52;6.90;99.90
1391;DHT22;690;51.454;7.194;2023-11-21T15:46:20;6.90;99.90
1391;DHT22;690;51.454;7.194;2023-11-21T15:48:47;6.80;99.90
1391;DHT22;690;51.454;7.194;2023-11-21T15:51:17;6.70;99.90
1391;DHT22;690;51.454;7.194;2023-11-21T15:53:44;6.60;99.90
1391;DHT22;690;51.454;7.194;2023-11-21T15:56:11;6.50;1.00
1391;DHT22;690;51.454;7.194;2023-11-21T15:58:40;6.40;1.00
1391;DHT22;690;51.454;7.194;2023-11-21T16:01:08;6.40;1.00
1391;DHT22;690;51.454;7.194;2023-11-21T16:03:36;6.40;1.00
1391;DHT22;690;51.454;7.194;2023-11-21T16:06:04;6.30;1.00
1391;DHT22;690;51.454;7.194;2023-11-21T16:08:31;6.30;1.00
1391;DHT22;690;51.454;7.194;2023-11-21T16:10:58;6.30;99.90
1391;DHT22;690;51.454;7.194;2023-11-21T16:13:25;6.20;99.90
1391;DHT22;690;51.454;7.194;2023-11-21T16:15:53;6.20;99.90
1391;DHT22;690;51.454;7.194;2023-11-21T16:18:20;6.20;1.00
1391;DHT22;690;51.454;7.194;2023-11-21T16:20:49;6.10;1.00
1391;DHT22;690;51.454;7.194;2023-11-21T16:23:16;6.10;1.00
1391;DHT22;690;51.454;7.194;2023-11-21T16:25:43;6.00;1.00
1391;DHT22;690;51.454;7.194;2023-11-21T16:28:10;6.00;1.00
1391;DHT22;690;51.454;7.194;2023-11-21T16:30:37;5.90;1.00
1391;DHT22;690;51.454;7.194;2023-11-21T16:33:05;5.90;1.00
1391;DHT22;690;51.454;7.194;2023-11-21T16:35:32;5.80;1.00
1391;DHT22;690;51.454;7.194;2023-11-21T16:37:59;5.90;1.00
1391;DHT22;690;51.454;7.194;2023-11-21T16:40:26;5.90;1.00
1391;DHT22;690;51.454;7.194;2023-11-21T16:42:53;5.80;1.00
1391;DHT22;690;51.454;7.194;2023-11-21T16:45:20;5.70;1.00
1391;DHT22;690;51.454;7.194;2023-11-21T16:47:48;5.70;1.00
1391;DHT22;690;51.454;7.194;2023-11-21T16:50:17;5.70;1.00
1391;DHT22;690;51.454;7.194;2023-11-21T16:52:44;5.70;1.00
1391;DHT22;690;51.454;7.194;2023-11-21T16:55:11;5.70;1.00